sensor_id;sensor_type;location;lat;lon;timestamp;pressure;altitude;pressure_sealevel;temperature;humidity
30724;BME280;17473;52.286;20.930;2023-02-20T00:00:50;100359.72;;;3.88;61.76
30724;BME280;17473;52.286;20.930;2023-02-20T00:03:17;100370.97;;;3.87;62.10
30724;BME280;17473;52.286;20.930;2023-02-20T00:05:45;100366.56;;;3.86;62.31
30724;BME280;17473;52.286;20.930;2023-02-20T00:08:12;100354.56;;;3.90;61.98
30724;BME280;17473;52.286;20.930;2023-02-20T00:10:39;100352.88;;;3.90;62.00
30724;BME280;17473;52.286;20.930;2023-02-20T00:13:06;100353.97;;;3.94;61.92
30724;BME280;17473;52.286;20.930;2023-02-20T00:15:33;100337.28;;;3.92;61.93
30724;BME280;17473;52.286;20.930;2023-02-20T00:18:00;100338.19;;;3.92;61.82
30724;BME280;17473;52.286;20.930;2023-02-20T00:20:27;100337.19;;;3.90;61.73
30724;BME280;17473;52.286;20.930;2023-02-20T00:22:56;100329.16;;;3.87;61.65
30724;BME280;17473;52.286;20.930;2023-02-20T00:25:23;100332.06;;;3.92;61.63
30724;BME280;17473;52.286;20.930;2023-02-20T00:27:50;100333.66;;;3.90;61.61
30724;BME280;17473;52.286;20.930;2023-02-20T00:30:22;100344.31;;;3.93;61.33
30724;BME280;17473;52.286;20.930;2023-02-20T00:32:52;100333.13;;;3.96;61.29
30724;BME280;17473;52.286;20.930;2023-02-20T00:35:20;100321.88;;;3.82;61.53
30724;BME280;17473;52.286;20.930;2023-02-20T00:37:48;100333.88;;;3.93;61.14
30724;BME280;17473;52.286;20.930;2023-02-20T00:40:18;100335.13;;;4.00;60.83
30724;BME280;17473;52.286;20.930;2023-02-20T00:42:45;100337.94;;;4.03;60.78
30724;BME280;17473;52.286;20.930;2023-02-20T00:45:15;100338.91;;;3.90;61.03
30724;BME280;17473;52.286;20.930;2023-02-20T00:47:43;100349.91;;;3.84;61.11
30724;BME280;17473;52.286;20.930;2023-02-20T00:50:15;100345.03;;;3.90;60.86
30724;BME280;17473;52.286;20.930;2023-02-20T00:52:42;100351.53;;;3.82;61.31
30724;BME280;17473;52.286;20.930;2023-02-20T00:55:10;100336.84;;;3.84;61.36
30724;BME280;17473;52.286;20.930;2023-02-20T00:57:37;100337.53;;;3.82;61.34
30724;BME280;17473;52.286;20.930;2023-02-20T01:00:11;100346.94;;;3.93;60.82
30724;BME280;17473;52.286;20.930;2023-02-20T01:02:38;100339.00;;;3.91;60.98
30724;BME280;17473;52.286;20.930;2023-02-20T01:05:05;100335.19;;;3.86;61.29
30724;BME280;17473;52.286;20.930;2023-02-20T01:07:33;100329.91;;;3.85;61.23
30724;BME280;17473;52.286;20.930;2023-02-20T01:10:00;100336.84;;;3.84;61.32
30724;BME280;17473;52.286;20.930;2023-02-20T01:12:27;100336.44;;;3.78;61.39
30724;BME280;17473;52.286;20.930;2023-02-20T01:14:54;100334.13;;;3.83;61.35
30724;BME280;17473;52.286;20.930;2023-02-20T01:17:21;100341.06;;;3.82;61.19
30724;BME280;17473;52.286;20.930;2023-02-20T01:19:48;100328.91;;;3.83;61.19
30724;BME280;17473;52.286;20.930;2023-02-20T01:22:15;100330.81;;;3.85;61.10
30724;BME280;17473;52.286;20.930;2023-02-20T01:24:42;100321.06;;;3.83;61.23
30724;BME280;17473;52.286;20.930;2023-02-20T01:27:09;100319.44;;;3.85;61.12
30724;BME280;17473;52.286;20.930;2023-02-20T01:29:36;100314.88;;;3.81;61.33
30724;BME280;17473;52.286;20.930;2023-02-20T01:32:04;100312.38;;;3.69;61.62
30724;BME280;17473;52.286;20.930;2023-02-20T01:34:31;100319.38;;;3.83;61.42
30724;BME280;17473;52.286;20.930;2023-02-20T01:36:58;100325.13;;;3.78;61.42
30724;BME280;17473;52.286;20.930;2023-02-20T01:39:27;100310.16;;;3.75;61.44
30724;BME280;17473;52.286;20.930;2023-02-20T01:42:02;100311.53;;;3.83;60.87
30724;BME280;17473;52.286;20.930;2023-02-20T01:44:34;100311.69;;;3.86;61.21
30724;BME280;17473;52.286;20.930;2023-02-20T01:47:06;100312.78;;;3.90;61.11
30724;BME280;17473;52.286;20.930;2023-02-20T01:53:43;100304.22;;;3.78;61.44
30724;BME280;17473;52.286;20.930;2023-02-20T01:56:11;100301.16;;;3.85;61.48
30724;BME280;17473;52.286;20.930;2023-02-20T01:58:45;100303.50;;;3.80;61.60
30724;BME280;17473;52.286;20.930;2023-02-20T02:01:14;100306.75;;;3.76;61.84
30724;BME280;17473;52.286;20.930;2023-02-20T02:03:44;100307.72;;;3.78;61.74
30724;BME280;17473;52.286;20.930;2023-02-20T02:06:14;100297.47;;;3.81;61.76
30724;BME280;17473;52.286;20.930;2023-02-20T02:08:43;100307.03;;;3.81;61.73
30724;BME280;17473;52.286;20.930;2023-02-20T02:11:21;100300.97;;;3.82;61.59
30724;BME280;17473;52.286;20.930;2023-02-20T02:13:50;100308.66;;;3.94;61.49
30724;BME280;17473;52.286;20.930;2023-02-20T02:44:09;100296.75;;;3.84;61.64
30724;BME280;17473;52.286;20.930;2023-02-20T02:47:01;100287.53;;;3.75;61.95
30724;BME280;17473;52.286;20.930;2023-02-20T02:52:05;100283.69;;;3.84;61.55
30724;BME280;17473;52.286;20.930;2023-02-20T02:54:32;100294.66;;;3.93;61.49
30724;BME280;17473;52.286;20.930;2023-02-20T02:57:25;100303.84;;;3.86;61.76
30724;BME280;17473;52.286;20.930;2023-02-20T03:00:05;100291.88;;;3.90;61.52
30724;BME280;17473;52.286;20.930;2023-02-20T03:05:54;100290.16;;;3.90;61.45
30724;BME280;17473;52.286;20.930;2023-02-20T03:08:36;100290.25;;;3.92;61.40
30724;BME280;17473;52.286;20.930;2023-02-20T03:11:16;100298.00;;;3.90;61.82
30724;BME280;17473;52.286;20.930;2023-02-20T03:13:56;100300.44;;;3.87;61.84
30724;BME280;17473;52.286;20.930;2023-02-20T03:19:47;100282.59;;;3.95;61.70
30724;BME280;17473;52.286;20.930;2023-02-20T03:22:26;100292.78;;;3.90;61.78
30724;BME280;17473;52.286;20.930;2023-02-20T03:28:04;100282.69;;;3.82;62.10
30724;BME280;17473;52.286;20.930;2023-02-20T03:30:46;100287.63;;;3.92;62.03
30724;BME280;17473;52.286;20.930;2023-02-20T03:33:46;100282.25;;;3.89;62.26
30724;BME280;17473;52.286;20.930;2023-02-20T03:36:42;100276.91;;;3.72;62.71
30724;BME280;17473;52.286;20.930;2023-02-20T03:39:33;100286.47;;;3.87;62.60
30724;BME280;17473;52.286;20.930;2023-02-20T03:42:22;100293.25;;;3.83;62.91
30724;BME280;17473;52.286;20.930;2023-02-20T03:45:10;100291.34;;;3.81;62.98
30724;BME280;17473;52.286;20.930;2023-02-20T03:47:42;100287.63;;;3.77;63.15
30724;BME280;17473;52.286;20.930;2023-02-20T03:50:11;100289.97;;;3.72;63.40
30724;BME280;17473;52.286;20.930;2023-02-20T03:52:39;100275.28;;;3.74;63.45
30724;BME280;17473;52.286;20.930;2023-02-20T03:55:07;100281.53;;;3.76;63.21
30724;BME280;17473;52.286;20.930;2023-02-20T03:57:41;100287.47;;;3.74;63.40
30724;BME280;17473;52.286;20.930;2023-02-20T04:00:13;100274.66;;;3.64;63.66
30724;BME280;17473;52.286;20.930;2023-02-20T04:02:44;100284.59;;;3.69;63.40
30724;BME280;17473;52.286;20.930;2023-02-20T04:05:21;100284.31;;;3.65;63.67
30724;BME280;17473;52.286;20.930;2023-02-20T04:08:13;100284.47;;;3.68;63.52
30724;BME280;17473;52.286;20.930;2023-02-20T04:13:17;100281.25;;;3.72;63.19
30724;BME280;17473;52.286;20.930;2023-02-20T04:15:45;100275.94;;;3.70;63.20
30724;BME280;17473;52.286;20.930;2023-02-20T04:18:17;100259.25;;;3.53;64.14
30724;BME280;17473;52.286;20.930;2023-02-20T04:20:53;100258.81;;;3.60;63.75
30724;BME280;17473;52.286;20.930;2023-02-20T04:23:23;100264.56;;;3.70;63.58
30724;BME280;17473;52.286;20.930;2023-02-20T04:26:18;100268.91;;;3.69;63.48
30724;BME280;17473;52.286;20.930;2023-02-20T04:28:46;100267.09;;;3.68;63.50
30724;BME280;17473;52.286;20.930;2023-02-20T04:31:15;100263.22;;;3.62;63.71
30724;BME280;17473;52.286;20.930;2023-02-20T04:33:43;100262.41;;;3.63;63.64
30724;BME280;17473;52.286;20.930;2023-02-20T04:36:10;100256.19;;;3.60;63.76
30724;BME280;17473;52.286;20.930;2023-02-20T04:38:38;100243.06;;;3.59;63.85
30724;BME280;17473;52.286;20.930;2023-02-20T04:41:05;100237.91;;;3.60;63.94
30724;BME280;17473;52.286;20.930;2023-02-20T04:43:32;100239.19;;;3.67;63.99
30724;BME280;17473;52.286;20.930;2023-02-20T04:45:59;100239.56;;;3.58;64.12
30724;BME280;17473;52.286;20.930;2023-02-20T04:48:26;100229.63;;;3.68;63.96
30724;BME280;17473;52.286;20.930;2023-02-20T04:50:53;100231.44;;;3.69;64.23
30724;BME280;17473;52.286;20.930;2023-02-20T04:53:20;100223.50;;;3.67;64.17
30724;BME280;17473;52.286;20.930;2023-02-20T04:55:47;100232.53;;;3.57;64.53
30724;BME280;17473;52.286;20.930;2023-02-20T04:58:14;100228.72;;;3.52;64.86
30724;BME280;17473;52.286;20.930;2023-02-20T05:00:41;100231.59;;;3.57;64.83
30724;BME280;17473;52.286;20.930;2023-02-20T05:03:09;100233.22;;;3.55;64.96
30724;BME280;17473;52.286;20.930;2023-02-20T05:05:36;100222.97;;;3.58;64.99
30724;BME280;17473;52.286;20.930;2023-02-20T05:08:05;100223.88;;;3.58;65.27
30724;BME280;17473;52.286;20.930;2023-02-20T05:10:34;100216.88;;;3.57;65.42
30724;BME280;17473;52.286;20.930;2023-02-20T05:13:02;100208.84;;;3.69;65.32
30724;BME280;17473;52.286;20.930;2023-02-20T05:15:30;100190.44;;;3.68;65.25
30724;BME280;17473;52.286;20.930;2023-02-20T05:17:57;100202.69;;;3.69;65.25
30724;BME280;17473;52.286;20.930;2023-02-20T05:20:24;100200.63;;;3.63;65.65
30724;BME280;17473;52.286;20.930;2023-02-20T05:23:12;100189.22;;;3.61;65.86
30724;BME280;17473;52.286;20.930;2023-02-20T05:25:39;100193.53;;;3.60;66.29
30724;BME280;17473;52.286;20.930;2023-02-20T05:28:06;100190.91;;;3.60;66.38
30724;BME280;17473;52.286;20.930;2023-02-20T05:30:33;100198.00;;;3.63;66.44
30724;BME280;17473;52.286;20.930;2023-02-20T05:33:00;100194.59;;;3.64;66.39
30724;BME280;17473;52.286;20.930;2023-02-20T05:35:27;100204.03;;;3.77;66.44
30724;BME280;17473;52.286;20.930;2023-02-20T05:37:54;100213.69;;;3.78;66.31
30724;BME280;17473;52.286;20.930;2023-02-20T05:40:21;100208.72;;;3.83;66.34
30724;BME280;17473;52.286;20.930;2023-02-20T05:42:48;100208.38;;;3.76;66.77
30724;BME280;17473;52.286;20.930;2023-02-20T05:45:16;100199.81;;;3.79;66.82
30724;BME280;17473;52.286;20.930;2023-02-20T05:47:43;100188.47;;;3.79;66.95
30724;BME280;17473;52.286;20.930;2023-02-20T05:50:10;100171.09;;;3.79;66.95
30724;BME280;17473;52.286;20.930;2023-02-20T05:52:37;100175.41;;;3.79;67.15
30724;BME280;17473;52.286;20.930;2023-02-20T05:55:04;100178.31;;;3.68;67.61
30724;BME280;17473;52.286;20.930;2023-02-20T05:57:31;100177.50;;;3.69;67.57
30724;BME280;17473;52.286;20.930;2023-02-20T05:59:58;100173.88;;;3.82;67.14
30724;BME280;17473;52.286;20.930;2023-02-20T06:02:25;100160.63;;;3.79;67.13
30724;BME280;17473;52.286;20.930;2023-02-20T06:04:53;100167.94;;;3.85;66.94
30724;BME280;17473;52.286;20.930;2023-02-20T06:07:21;100169.28;;;3.78;67.15
30724;BME280;17473;52.286;20.930;2023-02-20T06:09:48;100177.38;;;3.83;67.13
30724;BME280;17473;52.286;20.930;2023-02-20T06:12:15;100173.22;;;3.86;67.25
30724;BME280;17473;52.286;20.930;2023-02-20T06:14:42;100154.69;;;3.82;67.21
30724;BME280;17473;52.286;20.930;2023-02-20T06:17:10;100156.66;;;3.86;67.24
30724;BME280;17473;52.286;20.930;2023-02-20T06:19:37;100152.69;;;3.92;67.34
30724;BME280;17473;52.286;20.930;2023-02-20T06:22:05;100157.47;;;4.00;67.16
30724;BME280;17473;52.286;20.930;2023-02-20T06:24:32;100149.34;;;3.95;67.23
30724;BME280;17473;52.286;20.930;2023-02-20T06:26:59;100144.97;;;4.11;66.90
30724;BME280;17473;52.286;20.930;2023-02-20T06:29:27;100141.84;;;4.01;66.84
30724;BME280;17473;52.286;20.930;2023-02-20T06:31:58;100143.28;;;4.11;66.88
30724;BME280;17473;52.286;20.930;2023-02-20T06:34:26;100142.22;;;4.07;66.86
30724;BME280;17473;52.286;20.930;2023-02-20T06:37:00;100135.91;;;4.04;67.26
30724;BME280;17473;52.286;20.930;2023-02-20T06:39:31;100131.91;;;4.11;67.18
30724;BME280;17473;52.286;20.930;2023-02-20T06:41:59;100121.66;;;4.14;67.17
30724;BME280;17473;52.286;20.930;2023-02-20T06:44:26;100131.00;;;4.25;66.89
30724;BME280;17473;52.286;20.930;2023-02-20T06:46:53;100131.88;;;4.26;66.72
30724;BME280;17473;52.286;20.930;2023-02-20T06:49:20;100135.03;;;4.20;67.19
30724;BME280;17473;52.286;20.930;2023-02-20T06:51:47;100133.84;;;4.30;67.16
30724;BME280;17473;52.286;20.930;2023-02-20T06:54:18;100112.53;;;4.38;66.76
30724;BME280;17473;52.286;20.930;2023-02-20T06:56:47;100109.16;;;4.41;66.81
30724;BME280;17473;52.286;20.930;2023-02-20T06:59:14;100110.91;;;4.57;66.46
30724;BME280;17473;52.286;20.930;2023-02-20T07:01:42;100122.09;;;4.71;66.16
30724;BME280;17473;52.286;20.930;2023-02-20T07:04:27;100114.56;;;4.77;66.03
30724;BME280;17473;52.286;20.930;2023-02-20T07:06:54;100121.53;;;4.93;65.56
30724;BME280;17473;52.286;20.930;2023-02-20T07:09:22;100121.09;;;5.02;65.29
30724;BME280;17473;52.286;20.930;2023-02-20T07:11:53;100118.94;;;5.11;65.20
30724;BME280;17473;52.286;20.930;2023-02-20T07:14:21;100113.22;;;5.19;65.32
30724;BME280;17473;52.286;20.930;2023-02-20T07:16:48;100101.50;;;5.28;65.09
30724;BME280;17473;52.286;20.930;2023-02-20T07:19:15;100103.91;;;5.60;64.39
30724;BME280;17473;52.286;20.930;2023-02-20T07:21:42;100107.88;;;5.70;63.72
30724;BME280;17473;52.286;20.930;2023-02-20T07:24:09;100110.81;;;5.76;63.54
30724;BME280;17473;52.286;20.930;2023-02-20T07:26:36;100108.09;;;5.74;63.59
30724;BME280;17473;52.286;20.930;2023-02-20T07:29:06;100108.78;;;5.70;63.80
30724;BME280;17473;52.286;20.930;2023-02-20T07:31:33;100101.72;;;5.87;63.35
30724;BME280;17473;52.286;20.930;2023-02-20T07:34:00;100102.06;;;5.93;63.07
30724;BME280;17473;52.286;20.930;2023-02-20T07:36:27;100109.47;;;6.02;63.24
30724;BME280;17473;52.286;20.930;2023-02-20T07:38:57;100096.69;;;6.08;62.74
30724;BME280;17473;52.286;20.930;2023-02-20T07:41:26;100107.19;;;5.92;63.27
30724;BME280;17473;52.286;20.930;2023-02-20T07:43:55;100085.81;;;5.83;63.60
30724;BME280;17473;52.286;20.930;2023-02-20T07:46:23;100115.31;;;5.78;64.04
30724;BME280;17473;52.286;20.930;2023-02-20T07:48:50;100086.31;;;5.75;64.25
30724;BME280;17473;52.286;20.930;2023-02-20T07:51:19;100077.81;;;5.79;64.33
30724;BME280;17473;52.286;20.930;2023-02-20T07:53:50;100072.88;;;6.04;63.69
30724;BME280;17473;52.286;20.930;2023-02-20T07:56:19;100068.44;;;6.03;63.64
30724;BME280;17473;52.286;20.930;2023-02-20T07:58:48;100059.22;;;6.11;63.57
30724;BME280;17473;52.286;20.930;2023-02-20T08:01:16;100052.38;;;6.15;63.37
30724;BME280;17473;52.286;20.930;2023-02-20T08:03:43;100046.53;;;6.20;63.21
30724;BME280;17473;52.286;20.930;2023-02-20T08:06:10;100029.47;;;6.30;63.23
30724;BME280;17473;52.286;20.930;2023-02-20T08:08:38;100023.34;;;6.49;62.77
30724;BME280;17473;52.286;20.930;2023-02-20T08:11:05;100017.41;;;6.34;63.30
30724;BME280;17473;52.286;20.930;2023-02-20T08:13:36;100022.28;;;6.46;62.87
30724;BME280;17473;52.286;20.930;2023-02-20T08:16:04;100021.72;;;6.32;63.39
30724;BME280;17473;52.286;20.930;2023-02-20T08:18:31;100012.31;;;6.37;63.43
30724;BME280;17473;52.286;20.930;2023-02-20T08:20:58;100004.78;;;6.45;63.21
30724;BME280;17473;52.286;20.930;2023-02-20T08:23:25;100002.78;;;6.39;63.65
30724;BME280;17473;52.286;20.930;2023-02-20T08:25:53;100005.00;;;6.30;64.04
30724;BME280;17473;52.286;20.930;2023-02-20T08:28:20;99995.06;;;6.22;64.71
30724;BME280;17473;52.286;20.930;2023-02-20T08:30:48;99980.50;;;6.09;65.01
30724;BME280;17473;52.286;20.930;2023-02-20T08:33:15;99977.75;;;6.26;64.86
30724;BME280;17473;52.286;20.930;2023-02-20T08:35:42;99979.03;;;6.16;65.56
30724;BME280;17473;52.286;20.930;2023-02-20T08:38:32;99976.56;;;6.00;66.50
30724;BME280;17473;52.286;20.930;2023-02-20T08:41:09;99966.63;;;6.12;66.10
30724;BME280;17473;52.286;20.930;2023-02-20T08:43:39;99967.81;;;5.99;66.86
30724;BME280;17473;52.286;20.930;2023-02-20T08:46:06;99969.22;;;5.92;67.56
30724;BME280;17473;52.286;20.930;2023-02-20T08:48:34;99970.78;;;5.89;68.41
30724;BME280;17473;52.286;20.930;2023-02-20T08:51:02;99974.84;;;5.82;68.83
30724;BME280;17473;52.286;20.930;2023-02-20T08:53:29;99960.38;;;5.90;69.08
30724;BME280;17473;52.286;20.930;2023-02-20T08:55:56;99961.06;;;5.86;69.76
30724;BME280;17473;52.286;20.930;2023-02-20T08:58:24;99952.41;;;5.69;71.03
30724;BME280;17473;52.286;20.930;2023-02-20T09:00:52;99934.34;;;5.56;72.00
30724;BME280;17473;52.286;20.930;2023-02-20T09:03:20;99928.63;;;5.64;72.28
30724;BME280;17473;52.286;20.930;2023-02-20T09:05:48;99929.50;;;5.65;72.43
30724;BME280;17473;52.286;20.930;2023-02-20T09:08:16;99914.13;;;5.53;73.64
30724;BME280;17473;52.286;20.930;2023-02-20T09:10:43;99906.38;;;5.37;74.77
30724;BME280;17473;52.286;20.930;2023-02-20T09:13:10;99906.03;;;5.29;75.68
30724;BME280;17473;52.286;20.930;2023-02-20T09:15:37;99892.88;;;5.27;76.20
30724;BME280;17473;52.286;20.930;2023-02-20T09:18:12;99887.63;;;5.27;76.79
30724;BME280;17473;52.286;20.930;2023-02-20T09:20:40;99878.56;;;5.21;77.25
30724;BME280;17473;52.286;20.930;2023-02-20T09:23:08;99863.34;;;5.12;77.85
30724;BME280;17473;52.286;20.930;2023-02-20T09:25:35;99856.09;;;5.06;78.36
30724;BME280;17473;52.286;20.930;2023-02-20T09:28:02;99847.44;;;5.07;78.77
30724;BME280;17473;52.286;20.930;2023-02-20T09:30:30;99839.97;;;4.97;79.24
30724;BME280;17473;52.286;20.930;2023-02-20T09:32:57;99834.66;;;4.95;79.58
30724;BME280;17473;52.286;20.930;2023-02-20T09:35:27;99822.41;;;4.94;79.85
30724;BME280;17473;52.286;20.930;2023-02-20T09:37:55;99809.69;;;4.84;80.42
30724;BME280;17473;52.286;20.930;2023-02-20T09:40:28;99799.47;;;4.89;80.50
30724;BME280;17473;52.286;20.930;2023-02-20T09:43:46;99786.09;;;4.82;81.18
30724;BME280;17473;52.286;20.930;2023-02-20T09:46:21;99796.78;;;4.87;81.27
30724;BME280;17473;52.286;20.930;2023-02-20T09:49:20;99774.81;;;4.83;81.89
30724;BME280;17473;52.286;20.930;2023-02-20T09:51:58;99763.66;;;4.88;81.79
30724;BME280;17473;52.286;20.930;2023-02-20T09:54:35;99755.84;;;4.69;83.07
30724;BME280;17473;52.286;20.930;2023-02-20T09:57:14;99726.53;;;4.59;83.22
30724;BME280;17473;52.286;20.930;2023-02-20T09:59:50;99726.97;;;4.68;83.35
30724;BME280;17473;52.286;20.930;2023-02-20T10:02:28;99726.31;;;4.72;83.24
30724;BME280;17473;52.286;20.930;2023-02-20T10:05:01;99725.59;;;4.57;83.79
30724;BME280;17473;52.286;20.930;2023-02-20T10:07:37;99720.44;;;4.58;84.00
30724;BME280;17473;52.286;20.930;2023-02-20T10:10:27;99715.28;;;4.60;83.88
30724;BME280;17473;52.286;20.930;2023-02-20T10:16:49;99688.63;;;4.49;84.72
30724;BME280;17473;52.286;20.930;2023-02-20T10:22:17;99689.66;;;4.52;85.16
30724;BME280;17473;52.286;20.930;2023-02-20T10:25:04;99677.25;;;4.48;85.51
30724;BME280;17473;52.286;20.930;2023-02-20T10:27:59;99662.97;;;4.60;85.24
30724;BME280;17473;52.286;20.930;2023-02-20T10:30:34;99667.97;;;4.55;85.94
30724;BME280;17473;52.286;20.930;2023-02-20T10:35:56;99654.78;;;4.52;86.50
30724;BME280;17473;52.286;20.930;2023-02-20T10:38:32;99634.00;;;4.55;86.49
30724;BME280;17473;52.286;20.930;2023-02-20T10:52:15;99610.56;;;4.57;87.00
30724;BME280;17473;52.286;20.930;2023-02-20T10:55:17;99609.63;;;4.56;87.47
30724;BME280;17473;52.286;20.930;2023-02-20T10:57:57;99600.75;;;4.52;87.84
30724;BME280;17473;52.286;20.930;2023-02-20T11:04:24;99573.59;;;4.49;88.35
30724;BME280;17473;52.286;20.930;2023-02-20T11:07:00;99572.81;;;4.51;87.94
30724;BME280;17473;52.286;20.930;2023-02-20T11:09:28;99556.16;;;4.49;88.17
30724;BME280;17473;52.286;20.930;2023-02-20T11:11:55;99569.94;;;4.45;88.14
30724;BME280;17473;52.286;20.930;2023-02-20T11:14:39;99562.22;;;4.48;87.77
30724;BME280;17473;52.286;20.930;2023-02-20T11:17:12;99541.44;;;4.51;87.55
30724;BME280;17473;52.286;20.930;2023-02-20T11:22:18;99422.16;;;4.34;88.39
30724;BME280;17473;52.286;20.930;2023-02-20T11:25:17;99426.19;;;4.26;89.07
30724;BME280;17473;52.286;20.930;2023-02-20T11:27:50;99447.44;;;4.33;89.41
30724;BME280;17473;52.286;20.930;2023-02-20T11:30:29;99412.22;;;4.25;89.46
30724;BME280;17473;52.286;20.930;2023-02-20T11:35:50;99370.66;;;4.31;90.12
30724;BME280;17473;52.286;20.930;2023-02-20T11:38:27;99417.56;;;4.28;90.83
30724;BME280;17473;52.286;20.930;2023-02-20T11:43:35;99381.47;;;4.39;91.18
30724;BME280;17473;52.286;20.930;2023-02-20T11:46:22;99358.03;;;4.42;90.94
30724;BME280;17473;52.286;20.930;2023-02-20T11:48:56;99353.63;;;4.41;91.77
30724;BME280;17473;52.286;20.930;2023-02-20T11:51:38;99346.75;;;4.43;92.07
30724;BME280;17473;52.286;20.930;2023-02-20T11:54:26;99339.44;;;4.56;91.76
30724;BME280;17473;52.286;20.930;2023-02-20T11:57:20;99316.78;;;4.56;91.77
30724;BME280;17473;52.286;20.930;2023-02-20T11:59:50;99310.28;;;4.67;91.88
30724;BME280;17473;52.286;20.930;2023-02-20T12:02:23;99303.25;;;4.66;91.92
30724;BME280;17473;52.286;20.930;2023-02-20T12:05:11;99280.88;;;4.73;91.89
30724;BME280;17473;52.286;20.930;2023-02-20T12:10:40;99236.94;;;4.87;92.28
30724;BME280;17473;52.286;20.930;2023-02-20T12:13:15;99212.50;;;4.86;92.46
30724;BME280;17473;52.286;20.930;2023-02-20T12:16:12;99211.88;;;4.94;92.48
30724;BME280;17473;52.286;20.930;2023-02-20T12:18:59;99219.72;;;4.94;92.64
30724;BME280;17473;52.286;20.930;2023-02-20T12:21:52;99239.34;;;5.05;92.18
30724;BME280;17473;52.286;20.930;2023-02-20T12:24:56;99221.03;;;5.05;92.81
30724;BME280;17473;52.286;20.930;2023-02-20T12:30:26;99204.00;;;5.16;93.17
30724;BME280;17473;52.286;20.930;2023-02-20T12:38:53;99217.47;;;5.27;93.62
30724;BME280;17473;52.286;20.930;2023-02-20T12:44:53;99203.59;;;5.54;92.74
30724;BME280;17473;52.286;20.930;2023-02-20T12:47:40;99220.94;;;5.51;93.11
30724;BME280;17473;52.286;20.930;2023-02-20T12:53:23;99213.03;;;5.49;93.64
30724;BME280;17473;52.286;20.930;2023-02-20T12:56:24;99216.78;;;5.56;93.93
30724;BME280;17473;52.286;20.930;2023-02-20T12:59:27;99207.22;;;5.58;94.32
30724;BME280;17473;52.286;20.930;2023-02-20T13:02:26;99215.22;;;5.62;94.18
30724;BME280;17473;52.286;20.930;2023-02-20T13:05:11;99216.19;;;5.64;93.91
30724;BME280;17473;52.286;20.930;2023-02-20T13:07:56;99214.69;;;5.71;93.85
30724;BME280;17473;52.286;20.930;2023-02-20T13:10:33;99211.94;;;5.68;94.20
30724;BME280;17473;52.286;20.930;2023-02-20T13:13:01;99186.22;;;5.82;93.67
30724;BME280;17473;52.286;20.930;2023-02-20T13:16:10;99217.03;;;5.89;93.63
30724;BME280;17473;52.286;20.930;2023-02-20T13:18:47;99169.66;;;5.83;93.78
30724;BME280;17473;52.286;20.930;2023-02-20T13:21:19;99176.19;;;5.96;93.56
30724;BME280;17473;52.286;20.930;2023-02-20T13:23:48;99173.97;;;6.07;93.36
30724;BME280;17473;52.286;20.930;2023-02-20T13:29:15;99173.47;;;6.19;92.07
30724;BME280;17473;52.286;20.930;2023-02-20T13:31:54;99161.31;;;6.21;92.44
30724;BME280;17473;52.286;20.930;2023-02-20T13:34:38;99151.56;;;6.17;92.86
30724;BME280;17473;52.286;20.930;2023-02-20T13:43:17;99130.81;;;6.24;92.70
30724;BME280;17473;52.286;20.930;2023-02-20T13:45:45;99123.03;;;6.26;92.50
30724;BME280;17473;52.286;20.930;2023-02-20T13:56:41;99122.03;;;6.51;91.85
30724;BME280;17473;52.286;20.930;2023-02-20T13:59:17;99102.75;;;6.49;91.85
30724;BME280;17473;52.286;20.930;2023-02-20T14:04:22;99110.03;;;6.60;91.36
30724;BME280;17473;52.286;20.930;2023-02-20T14:06:54;99109.31;;;6.65;90.97
30724;BME280;17473;52.286;20.930;2023-02-20T14:09:28;99104.06;;;6.65;90.88
30724;BME280;17473;52.286;20.930;2023-02-20T14:12:11;99094.03;;;6.81;90.25
30724;BME280;17473;52.286;20.930;2023-02-20T14:14:44;99078.25;;;6.79;90.17
30724;BME280;17473;52.286;20.930;2023-02-20T14:17:19;99083.28;;;6.71;91.08
30724;BME280;17473;52.286;20.930;2023-02-20T14:19:57;99084.47;;;6.83;90.40
30724;BME280;17473;52.286;20.930;2023-02-20T14:22:39;99077.78;;;6.94;89.68
30724;BME280;17473;52.286;20.930;2023-02-20T14:25:26;99066.03;;;6.80;90.17
30724;BME280;17473;52.286;20.930;2023-02-20T14:28:06;99074.88;;;6.83;90.53
30724;BME280;17473;52.286;20.930;2023-02-20T14:30:33;99069.44;;;6.77;90.87
30724;BME280;17473;52.286;20.930;2023-02-20T14:33:01;99056.09;;;7.01;89.88
30724;BME280;17473;52.286;20.930;2023-02-20T14:35:52;99069.41;;;7.08;89.41
30724;BME280;17473;52.286;20.930;2023-02-20T14:38:40;99076.47;;;7.10;89.47
30724;BME280;17473;52.286;20.930;2023-02-20T14:41:16;99057.31;;;7.14;88.74
30724;BME280;17473;52.286;20.930;2023-02-20T14:43:44;99022.53;;;7.22;88.88
30724;BME280;17473;52.286;20.930;2023-02-20T14:46:24;99023.75;;;7.02;89.48
30724;BME280;17473;52.286;20.930;2023-02-20T14:49:12;99032.13;;;7.21;88.81
30724;BME280;17473;52.286;20.930;2023-02-20T14:51:39;99039.03;;;7.17;89.02
30724;BME280;17473;52.286;20.930;2023-02-20T14:54:18;99043.78;;;7.32;88.33
30724;BME280;17473;52.286;20.930;2023-02-20T14:56:48;99000.97;;;7.35;87.94
30724;BME280;17473;52.286;20.930;2023-02-20T15:01:56;99028.91;;;7.33;87.73
30724;BME280;17473;52.286;20.930;2023-02-20T15:04:24;99019.88;;;7.57;87.49
30724;BME280;17473;52.286;20.930;2023-02-20T15:06:59;99017.88;;;7.46;87.33
30724;BME280;17473;52.286;20.930;2023-02-20T15:09:44;98994.72;;;7.66;86.61
30724;BME280;17473;52.286;20.930;2023-02-20T15:15:12;99003.22;;;7.56;87.31
30724;BME280;17473;52.286;20.930;2023-02-20T15:17:41;99007.63;;;7.57;87.12
30724;BME280;17473;52.286;20.930;2023-02-20T15:22:44;98993.75;;;7.63;87.25
30724;BME280;17473;52.286;20.930;2023-02-20T15:28:23;98986.00;;;7.69;86.56
30724;BME280;17473;52.286;20.930;2023-02-20T15:33:40;98979.16;;;7.76;86.50
30724;BME280;17473;52.286;20.930;2023-02-20T15:36:13;98967.56;;;7.66;86.36